Etusivu
METAR-TAF:

METAR-TAF

Lentoasemat :

Orcas Island Airport

Eastsound, Washington, Yhdysvallat

Leveyspiiri: 48-42-29N, Pituuspiiri: 122-54-37W, korkeus merenpinnasta: 9 m

Tämänhetkinen sää

Tämä raportti tehtiin 8 minuuttia sitten, kello 17.15 UTC
tyyntä
Lämpötila 10°C
Kosteus 100%
Ilmanpaine 1022 hPa
Näkyvyys: 4.8 km
Pilvistä 400 ft:n korkeudessa
utua

METAR: KORS 131715Z AUTO 00000KT 3SM BR OVC004 10/10 A3018 RMK AO2

Aika: 09:23 (17:23 UTC)


TAF: puuttuu

Säähavainnot ja -ennusteet yli 4000 lentoasemalta (METAR- ja TAF-raportit).

Käytössä olevat sääasemat on merkitty karttaan keltaisilla ja punaisilla pisteillä.

Aseta hiiri pisteen päälle nähdäksesi sääaseman nimen.

Klikkaa sitten nähdäksesi säähavainnot ja -ennusteet.

Kartan vaihtaminen: klikkaa mustalla rastilla varustettuja vihreitä pisteitä, niin voit zoomata sisään; viivalla varustettua vihreää pistettä, niin voit zoomata ulos tai vihreitä nuolia, niin pääset viereisille kartoille.


METAR-TAF: